sensor_id;sensor_type;location;lat;lon;timestamp;temperature;humidity
17766;DHT22;9007;53.550;9.928;2022-07-06T00:02:01;15.90;99.90
17766;DHT22;9007;53.550;9.928;2022-07-06T00:04:27;15.90;99.90
17766;DHT22;9007;53.550;9.928;2022-07-06T00:06:54;15.80;99.90
17766;DHT22;9007;53.550;9.928;2022-07-06T00:09:22;15.80;99.90
17766;DHT22;9007;53.550;9.928;2022-07-06T00:11:49;15.90;99.90
17766;DHT22;9007;53.550;9.928;2022-07-06T00:14:16;15.80;99.90
17766;DHT22;9007;53.550;9.928;2022-07-06T00:16:42;15.80;99.90
17766;DHT22;9007;53.550;9.928;2022-07-06T00:19:09;15.70;99.90
17766;DHT22;9007;53.550;9.928;2022-07-06T00:21:35;15.70;99.90
17766;DHT22;9007;53.550;9.928;2022-07-06T00:24:02;15.70;99.90
17766;DHT22;9007;53.550;9.928;2022-07-06T00:26:30;15.70;99.90
17766;DHT22;9007;53.550;9.928;2022-07-06T00:28:57;15.70;99.90
17766;DHT22;9007;53.550;9.928;2022-07-06T00:31:24;15.70;99.90
17766;DHT22;9007;53.550;9.928;2022-07-06T00:33:50;15.70;99.90
17766;DHT22;9007;53.550;9.928;2022-07-06T00:36:17;15.70;99.90
17766;DHT22;9007;53.550;9.928;2022-07-06T00:38:44;15.70;99.90
17766;DHT22;9007;53.550;9.928;2022-07-06T00:41:11;15.60;99.90
17766;DHT22;9007;53.550;9.928;2022-07-06T00:43:52;15.60;99.90
17766;DHT22;9007;53.550;9.928;2022-07-06T00:46:21;15.50;99.90
17766;DHT22;9007;53.550;9.928;2022-07-06T00:48:49;15.70;99.90
17766;DHT22;9007;53.550;9.928;2022-07-06T00:51:15;15.60;99.90
17766;DHT22;9007;53.550;9.928;2022-07-06T00:53:44;15.60;99.90
17766;DHT22;9007;53.550;9.928;2022-07-06T00:56:11;15.60;99.90
17766;DHT22;9007;53.550;9.928;2022-07-06T00:58:38;15.50;99.90
17766;DHT22;9007;53.550;9.928;2022-07-06T01:01:06;15.60;99.90
17766;DHT22;9007;53.550;9.928;2022-07-06T01:03:33;15.60;99.90
17766;DHT22;9007;53.550;9.928;2022-07-06T01:06:00;15.60;99.90
17766;DHT22;9007;53.550;9.928;2022-07-06T01:08:27;15.60;99.90
17766;DHT22;9007;53.550;9.928;2022-07-06T01:10:54;15.50;99.90
17766;DHT22;9007;53.550;9.928;2022-07-06T01:13:21;15.50;99.90
17766;DHT22;9007;53.550;9.928;2022-07-06T01:15:48;15.50;99.90
17766;DHT22;9007;53.550;9.928;2022-07-06T01:18:16;15.50;99.90
17766;DHT22;9007;53.550;9.928;2022-07-06T01:20:44;15.50;99.90
17766;DHT22;9007;53.550;9.928;2022-07-06T01:23:11;15.50;99.90
17766;DHT22;9007;53.550;9.928;2022-07-06T01:25:37;15.60;99.90
17766;DHT22;9007;53.550;9.928;2022-07-06T01:28:04;15.60;99.90
17766;DHT22;9007;53.550;9.928;2022-07-06T01:30:30;15.60;99.90
17766;DHT22;9007;53.550;9.928;2022-07-06T01:32:58;15.60;99.90
17766;DHT22;9007;53.550;9.928;2022-07-06T01:35:24;15.60;99.90
17766;DHT22;9007;53.550;9.928;2022-07-06T01:37:54;15.40;99.90
17766;DHT22;9007;53.550;9.928;2022-07-06T01:40:20;15.50;99.90
17766;DHT22;9007;53.550;9.928;2022-07-06T01:42:47;15.50;99.90
17766;DHT22;9007;53.550;9.928;2022-07-06T01:45:14;15.40;99.90
17766;DHT22;9007;53.550;9.928;2022-07-06T01:47:40;15.50;99.90
17766;DHT22;9007;53.550;9.928;2022-07-06T01:50:08;15.50;99.90
17766;DHT22;9007;53.550;9.928;2022-07-06T01:52:35;15.50;99.90
17766;DHT22;9007;53.550;9.928;2022-07-06T01:55:03;15.40;99.90
17766;DHT22;9007;53.550;9.928;2022-07-06T01:57:30;15.50;99.90
17766;DHT22;9007;53.550;9.928;2022-07-06T01:59:56;15.50;99.90
17766;DHT22;9007;53.550;9.928;2022-07-06T02:02:23;15.40;99.90
17766;DHT22;9007;53.550;9.928;2022-07-06T02:04:49;15.50;99.90
17766;DHT22;9007;53.550;9.928;2022-07-06T02:07:16;15.40;99.90
17766;DHT22;9007;53.550;9.928;2022-07-06T02:09:43;15.30;99.90
17766;DHT22;9007;53.550;9.928;2022-07-06T02:12:11;15.30;99.90
17766;DHT22;9007;53.550;9.928;2022-07-06T02:14:37;15.30;99.90
17766;DHT22;9007;53.550;9.928;2022-07-06T02:17:04;15.30;99.90
17766;DHT22;9007;53.550;9.928;2022-07-06T02:19:30;15.30;99.90
17766;DHT22;9007;53.550;9.928;2022-07-06T02:21:57;15.40;99.90
17766;DHT22;9007;53.550;9.928;2022-07-06T02:24:24;15.40;99.90
17766;DHT22;9007;53.550;9.928;2022-07-06T02:26:50;15.40;99.90
17766;DHT22;9007;53.550;9.928;2022-07-06T02:29:18;15.40;99.90
17766;DHT22;9007;53.550;9.928;2022-07-06T02:31:46;15.30;99.90
17766;DHT22;9007;53.550;9.928;2022-07-06T02:34:13;15.30;99.90
17766;DHT22;9007;53.550;9.928;2022-07-06T02:36:40;15.20;99.90
17766;DHT22;9007;53.550;9.928;2022-07-06T02:39:06;15.30;99.90
17766;DHT22;9007;53.550;9.928;2022-07-06T02:41:33;15.30;99.90
17766;DHT22;9007;53.550;9.928;2022-07-06T02:44:00;15.20;99.90
17766;DHT22;9007;53.550;9.928;2022-07-06T02:46:28;15.20;99.90
17766;DHT22;9007;53.550;9.928;2022-07-06T02:48:54;15.20;99.90
17766;DHT22;9007;53.550;9.928;2022-07-06T02:51:21;15.20;99.90
17766;DHT22;9007;53.550;9.928;2022-07-06T02:53:49;15.20;99.90
17766;DHT22;9007;53.550;9.928;2022-07-06T02:56:15;15.20;99.90
17766;DHT22;9007;53.550;9.928;2022-07-06T02:58:42;15.30;99.90
17766;DHT22;9007;53.550;9.928;2022-07-06T03:01:08;15.30;99.90
17766;DHT22;9007;53.550;9.928;2022-07-06T03:03:36;15.20;99.90
17766;DHT22;9007;53.550;9.928;2022-07-06T03:06:03;15.30;99.90
17766;DHT22;9007;53.550;9.928;2022-07-06T03:08:30;15.30;99.90
17766;DHT22;9007;53.550;9.928;2022-07-06T03:10:57;15.40;99.90
17766;DHT22;9007;53.550;9.928;2022-07-06T03:13:23;15.40;99.90
17766;DHT22;9007;53.550;9.928;2022-07-06T03:15:50;15.60;99.90
17766;DHT22;9007;53.550;9.928;2022-07-06T03:18:16;15.20;99.90
17766;DHT22;9007;53.550;9.928;2022-07-06T03:20:44;15.20;99.90
17766;DHT22;9007;53.550;9.928;2022-07-06T03:23:11;13.30;99.90
17766;DHT22;9007;53.550;9.928;2022-07-06T03:25:38;15.20;99.90
17766;DHT22;9007;53.550;9.928;2022-07-06T03:28:04;15.60;99.90
17766;DHT22;9007;53.550;9.928;2022-07-06T03:30:31;15.20;99.90
17766;DHT22;9007;53.550;9.928;2022-07-06T03:32:58;15.10;99.90
17766;DHT22;9007;53.550;9.928;2022-07-06T03:35:24;15.00;99.90
17766;DHT22;9007;53.550;9.928;2022-07-06T03:37:52;15.10;99.90
17766;DHT22;9007;53.550;9.928;2022-07-06T03:40:19;15.20;99.90
17766;DHT22;9007;53.550;9.928;2022-07-06T03:42:46;15.10;99.90
17766;DHT22;9007;53.550;9.928;2022-07-06T03:45:12;15.10;99.90
17766;DHT22;9007;53.550;9.928;2022-07-06T03:47:39;15.10;99.90
17766;DHT22;9007;53.550;9.928;2022-07-06T03:50:07;15.20;99.90
17766;DHT22;9007;53.550;9.928;2022-07-06T03:52:34;15.20;99.90
17766;DHT22;9007;53.550;9.928;2022-07-06T03:55:07;15.30;99.90
17766;DHT22;9007;53.550;9.928;2022-07-06T03:57:33;15.20;99.90
17766;DHT22;9007;53.550;9.928;2022-07-06T04:00:00;15.10;99.90
17766;DHT22;9007;53.550;9.928;2022-07-06T04:02:27;15.20;99.90
17766;DHT22;9007;53.550;9.928;2022-07-06T04:04:53;15.20;99.90
17766;DHT22;9007;53.550;9.928;2022-07-06T04:07:20;15.10;99.90
17766;DHT22;9007;53.550;9.928;2022-07-06T04:09:46;15.10;99.90
17766;DHT22;9007;53.550;9.928;2022-07-06T04:12:14;14.90;99.90
17766;DHT22;9007;53.550;9.928;2022-07-06T04:14:42;14.90;99.90
17766;DHT22;9007;53.550;9.928;2022-07-06T04:17:08;14.80;99.90
17766;DHT22;9007;53.550;9.928;2022-07-06T04:19:49;14.80;99.90
17766;DHT22;9007;53.550;9.928;2022-07-06T04:22:15;14.90;99.90
17766;DHT22;9007;53.550;9.928;2022-07-06T04:24:42;14.90;99.90
17766;DHT22;9007;53.550;9.928;2022-07-06T04:27:08;15.00;99.90
17766;DHT22;9007;53.550;9.928;2022-07-06T04:29:37;15.00;99.90
17766;DHT22;9007;53.550;9.928;2022-07-06T04:32:04;15.00;99.90
17766;DHT22;9007;53.550;9.928;2022-07-06T04:34:30;15.00;99.90
17766;DHT22;9007;53.550;9.928;2022-07-06T04:36:57;15.00;99.90
17766;DHT22;9007;53.550;9.928;2022-07-06T04:39:24;15.20;99.90
17766;DHT22;9007;53.550;9.928;2022-07-06T04:41:50;15.30;99.90
17766;DHT22;9007;53.550;9.928;2022-07-06T04:44:17;15.30;99.90
17766;DHT22;9007;53.550;9.928;2022-07-06T04:46:45;15.20;99.90
17766;DHT22;9007;53.550;9.928;2022-07-06T04:49:12;15.20;99.90
17766;DHT22;9007;53.550;9.928;2022-07-06T04:51:38;15.40;99.90
17766;DHT22;9007;53.550;9.928;2022-07-06T04:54:05;15.50;99.90
17766;DHT22;9007;53.550;9.928;2022-07-06T04:56:32;15.40;99.90
17766;DHT22;9007;53.550;9.928;2022-07-06T04:58:58;15.50;99.90
17766;DHT22;9007;53.550;9.928;2022-07-06T05:01:25;16.10;99.90
17766;DHT22;9007;53.550;9.928;2022-07-06T05:03:53;15.60;99.90
17766;DHT22;9007;53.550;9.928;2022-07-06T05:06:20;15.60;99.90
17766;DHT22;9007;53.550;9.928;2022-07-06T05:08:46;15.50;99.90
17766;DHT22;9007;53.550;9.928;2022-07-06T05:11:13;15.30;99.90
17766;DHT22;9007;53.550;9.928;2022-07-06T05:13:40;15.50;99.90
17766;DHT22;9007;53.550;9.928;2022-07-06T05:16:07;15.50;99.90
17766;DHT22;9007;53.550;9.928;2022-07-06T05:18:34;15.50;99.90
17766;DHT22;9007;53.550;9.928;2022-07-06T05:21:02;15.50;99.90
17766;DHT22;9007;53.550;9.928;2022-07-06T05:23:28;15.50;99.90
17766;DHT22;9007;53.550;9.928;2022-07-06T05:25:55;15.50;99.90
17766;DHT22;9007;53.550;9.928;2022-07-06T05:28:22;18.40;99.90
17766;DHT22;9007;53.550;9.928;2022-07-06T05:30:48;15.60;99.90
17766;DHT22;9007;53.550;9.928;2022-07-06T05:33:15;15.50;99.90
17766;DHT22;9007;53.550;9.928;2022-07-06T05:35:42;15.50;99.90
17766;DHT22;9007;53.550;9.928;2022-07-06T05:38:10;15.50;99.90
17766;DHT22;9007;53.550;9.928;2022-07-06T05:40:37;15.50;99.90
17766;DHT22;9007;53.550;9.928;2022-07-06T05:43:03;15.60;99.90
17766;DHT22;9007;53.550;9.928;2022-07-06T05:45:30;15.80;99.90
17766;DHT22;9007;53.550;9.928;2022-07-06T05:47:57;15.90;99.90
17766;DHT22;9007;53.550;9.928;2022-07-06T05:50:41;16.00;99.90
17766;DHT22;9007;53.550;9.928;2022-07-06T05:53:09;15.80;99.90
17766;DHT22;9007;53.550;9.928;2022-07-06T05:55:36;15.90;99.90
17766;DHT22;9007;53.550;9.928;2022-07-06T05:58:03;16.00;99.90
17766;DHT22;9007;53.550;9.928;2022-07-06T06:00:29;16.00;99.90
17766;DHT22;9007;53.550;9.928;2022-07-06T06:02:56;16.00;99.90
17766;DHT22;9007;53.550;9.928;2022-07-06T06:05:24;16.00;99.90
17766;DHT22;9007;53.550;9.928;2022-07-06T06:07:51;15.90;99.90
17766;DHT22;9007;53.550;9.928;2022-07-06T06:13:19;15.70;99.90
17766;DHT22;9007;53.550;9.928;2022-07-06T06:15:46;15.70;99.90
17766;DHT22;9007;53.550;9.928;2022-07-06T06:18:16;15.70;99.90
17766;DHT22;9007;53.550;9.928;2022-07-06T06:20:55;15.80;99.90
17766;DHT22;9007;53.550;9.928;2022-07-06T06:23:26;15.40;99.90
17766;DHT22;9007;53.550;9.928;2022-07-06T06:26:05;15.60;99.90
17766;DHT22;9007;53.550;9.928;2022-07-06T06:28:38;15.80;99.90
17766;DHT22;9007;53.550;9.928;2022-07-06T06:31:07;15.90;99.90
17766;DHT22;9007;53.550;9.928;2022-07-06T06:33:33;15.90;99.90
17766;DHT22;9007;53.550;9.928;2022-07-06T06:36:00;15.90;99.90
17766;DHT22;9007;53.550;9.928;2022-07-06T06:38:27;15.80;99.90
17766;DHT22;9007;53.550;9.928;2022-07-06T06:40:55;15.80;99.90
17766;DHT22;9007;53.550;9.928;2022-07-06T06:43:22;15.70;99.90
17766;DHT22;9007;53.550;9.928;2022-07-06T06:45:51;15.90;99.90
17766;DHT22;9007;53.550;9.928;2022-07-06T06:48:17;16.20;99.90
17766;DHT22;9007;53.550;9.928;2022-07-06T06:50:44;16.70;99.90
17766;DHT22;9007;53.550;9.928;2022-07-06T06:53:10;16.10;99.90
17766;DHT22;9007;53.550;9.928;2022-07-06T06:55:37;16.40;99.90
17766;DHT22;9007;53.550;9.928;2022-07-06T06:58:04;16.40;99.90
17766;DHT22;9007;53.550;9.928;2022-07-06T07:00:30;16.70;99.90
17766;DHT22;9007;53.550;9.928;2022-07-06T07:02:58;16.60;99.90
17766;DHT22;9007;53.550;9.928;2022-07-06T07:05:25;16.70;99.90
17766;DHT22;9007;53.550;9.928;2022-07-06T07:07:52;16.80;99.90
17766;DHT22;9007;53.550;9.928;2022-07-06T07:10:20;16.80;99.90
17766;DHT22;9007;53.550;9.928;2022-07-06T07:12:47;17.20;99.90
17766;DHT22;9007;53.550;9.928;2022-07-06T07:15:13;17.20;99.90
17766;DHT22;9007;53.550;9.928;2022-07-06T07:17:40;17.40;99.90
17766;DHT22;9007;53.550;9.928;2022-07-06T07:20:09;17.30;99.90
17766;DHT22;9007;53.550;9.928;2022-07-06T07:22:35;17.40;99.90
17766;DHT22;9007;53.550;9.928;2022-07-06T07:25:02;17.60;99.90
17766;DHT22;9007;53.550;9.928;2022-07-06T07:27:29;17.00;99.90
17766;DHT22;9007;53.550;9.928;2022-07-06T07:29:55;17.00;99.90
17766;DHT22;9007;53.550;9.928;2022-07-06T07:32:22;16.80;99.90
17766;DHT22;9007;53.550;9.928;2022-07-06T07:34:49;16.40;99.90
17766;DHT22;9007;53.550;9.928;2022-07-06T07:37:17;16.30;99.90
17766;DHT22;9007;53.550;9.928;2022-07-06T07:39:43;16.30;99.90
17766;DHT22;9007;53.550;9.928;2022-07-06T07:42:10;16.20;99.90
17766;DHT22;9007;53.550;9.928;2022-07-06T07:44:36;16.20;99.90
17766;DHT22;9007;53.550;9.928;2022-07-06T07:47:04;16.10;99.90
17766;DHT22;9007;53.550;9.928;2022-07-06T07:49:30;16.10;99.90
17766;DHT22;9007;53.550;9.928;2022-07-06T07:51:57;16.10;99.90
17766;DHT22;9007;53.550;9.928;2022-07-06T07:54:25;16.00;99.90
17766;DHT22;9007;53.550;9.928;2022-07-06T07:56:52;16.00;99.90
17766;DHT22;9007;53.550;9.928;2022-07-06T07:59:19;16.50;99.90
17766;DHT22;9007;53.550;9.928;2022-07-06T08:01:46;15.80;99.90
17766;DHT22;9007;53.550;9.928;2022-07-06T08:04:12;15.70;99.90
17766;DHT22;9007;53.550;9.928;2022-07-06T08:06:39;15.60;99.90
17766;DHT22;9007;53.550;9.928;2022-07-06T08:09:06;15.60;99.90
17766;DHT22;9007;53.550;9.928;2022-07-06T08:11:34;15.60;99.90
17766;DHT22;9007;53.550;9.928;2022-07-06T08:14:01;15.60;99.90
17766;DHT22;9007;53.550;9.928;2022-07-06T08:16:27;15.50;99.90
17766;DHT22;9007;53.550;9.928;2022-07-06T08:18:54;15.50;99.90
17766;DHT22;9007;53.550;9.928;2022-07-06T08:21:21;15.60;99.90
17766;DHT22;9007;53.550;9.928;2022-07-06T08:23:48;15.50;99.90
17766;DHT22;9007;53.550;9.928;2022-07-06T08:26:15;15.20;99.90
17766;DHT22;9007;53.550;9.928;2022-07-06T08:28:43;15.20;99.90
17766;DHT22;9007;53.550;9.928;2022-07-06T08:31:10;14.90;99.90
17766;DHT22;9007;53.550;9.928;2022-07-06T08:33:36;14.70;99.90
17766;DHT22;9007;53.550;9.928;2022-07-06T08:36:03;14.50;99.90
17766;DHT22;9007;53.550;9.928;2022-07-06T08:38:30;14.50;99.90
17766;DHT22;9007;53.550;9.928;2022-07-06T08:40:57;14.60;99.90
17766;DHT22;9007;53.550;9.928;2022-07-06T08:43:24;14.70;99.90
17766;DHT22;9007;53.550;9.928;2022-07-06T08:45:53;14.80;99.90
17766;DHT22;9007;53.550;9.928;2022-07-06T08:48:20;14.90;99.90
17766;DHT22;9007;53.550;9.928;2022-07-06T08:50:48;15.10;99.90
17766;DHT22;9007;53.550;9.928;2022-07-06T08:53:15;15.30;99.90
17766;DHT22;9007;53.550;9.928;2022-07-06T08:55:43;15.50;99.90
17766;DHT22;9007;53.550;9.928;2022-07-06T08:58:10;15.60;99.90
17766;DHT22;9007;53.550;9.928;2022-07-06T09:00:38;15.80;99.90
17766;DHT22;9007;53.550;9.928;2022-07-06T09:03:06;15.90;99.90
17766;DHT22;9007;53.550;9.928;2022-07-06T09:05:33;15.80;99.90
17766;DHT22;9007;53.550;9.928;2022-07-06T09:08:01;15.80;99.90
17766;DHT22;9007;53.550;9.928;2022-07-06T09:10:28;16.00;99.90
17766;DHT22;9007;53.550;9.928;2022-07-06T09:13:01;16.60;99.90
17766;DHT22;9007;53.550;9.928;2022-07-06T09:15:28;16.40;99.90
17766;DHT22;9007;53.550;9.928;2022-07-06T09:17:55;15.90;99.90
17766;DHT22;9007;53.550;9.928;2022-07-06T09:20:23;17.00;99.90
17766;DHT22;9007;53.550;9.928;2022-07-06T09:22:50;17.50;99.90
17766;DHT22;9007;53.550;9.928;2022-07-06T09:25:17;17.60;99.90
17766;DHT22;9007;53.550;9.928;2022-07-06T09:27:44;17.70;99.90
17766;DHT22;9007;53.550;9.928;2022-07-06T09:30:13;18.70;99.90
17766;DHT22;9007;53.550;9.928;2022-07-06T09:32:41;19.90;99.90
17766;DHT22;9007;53.550;9.928;2022-07-06T09:35:08;20.50;99.90
17766;DHT22;9007;53.550;9.928;2022-07-06T09:37:36;20.50;99.90
17766;DHT22;9007;53.550;9.928;2022-07-06T09:40:03;19.20;99.90
17766;DHT22;9007;53.550;9.928;2022-07-06T09:42:41;19.20;99.90
17766;DHT22;9007;53.550;9.928;2022-07-06T09:45:08;18.60;99.90
17766;DHT22;9007;53.550;9.928;2022-07-06T09:47:35;17.80;99.90
17766;DHT22;9007;53.550;9.928;2022-07-06T09:50:04;17.60;99.90
17766;DHT22;9007;53.550;9.928;2022-07-06T09:52:33;17.60;99.90
17766;DHT22;9007;53.550;9.928;2022-07-06T09:55:01;17.40;99.90
17766;DHT22;9007;53.550;9.928;2022-07-06T09:57:31;17.30;99.90
17766;DHT22;9007;53.550;9.928;2022-07-06T09:59:58;17.50;99.90
17766;DHT22;9007;53.550;9.928;2022-07-06T10:02:25;17.50;99.90
17766;DHT22;9007;53.550;9.928;2022-07-06T10:04:53;18.00;99.90
17766;DHT22;9007;53.550;9.928;2022-07-06T10:07:21;18.80;99.90
17766;DHT22;9007;53.550;9.928;2022-07-06T10:09:50;19.10;99.90
17766;DHT22;9007;53.550;9.928;2022-07-06T10:12:19;19.30;99.90
17766;DHT22;9007;53.550;9.928;2022-07-06T10:14:46;19.50;99.90
17766;DHT22;9007;53.550;9.928;2022-07-06T10:17:13;19.00;99.90
17766;DHT22;9007;53.550;9.928;2022-07-06T10:19:40;19.00;99.90
17766;DHT22;9007;53.550;9.928;2022-07-06T10:22:07;19.10;99.90
17766;DHT22;9007;53.550;9.928;2022-07-06T10:24:34;19.00;99.90
17766;DHT22;9007;53.550;9.928;2022-07-06T10:27:05;18.60;99.90
17766;DHT22;9007;53.550;9.928;2022-07-06T10:29:33;18.30;99.90
17766;DHT22;9007;53.550;9.928;2022-07-06T10:31:59;18.20;99.90
17766;DHT22;9007;53.550;9.928;2022-07-06T10:34:27;17.90;99.90
17766;DHT22;9007;53.550;9.928;2022-07-06T10:36:54;17.70;99.90
17766;DHT22;9007;53.550;9.928;2022-07-06T10:39:33;17.40;99.90
17766;DHT22;9007;53.550;9.928;2022-07-06T10:42:39;17.30;99.90
17766;DHT22;9007;53.550;9.928;2022-07-06T10:45:08;16.70;99.90
17766;DHT22;9007;53.550;9.928;2022-07-06T10:47:35;16.40;99.90
17766;DHT22;9007;53.550;9.928;2022-07-06T10:50:02;16.20;99.90
17766;DHT22;9007;53.550;9.928;2022-07-06T10:57:51;15.80;99.90
17766;DHT22;9007;53.550;9.928;2022-07-06T11:00:19;15.80;99.90
17766;DHT22;9007;53.550;9.928;2022-07-06T11:02:46;15.90;99.90
17766;DHT22;9007;53.550;9.928;2022-07-06T11:05:13;15.80;99.90
17766;DHT22;9007;53.550;9.928;2022-07-06T11:08:00;15.90;99.90
17766;DHT22;9007;53.550;9.928;2022-07-06T11:10:27;15.90;99.90
17766;DHT22;9007;53.550;9.928;2022-07-06T11:12:58;16.00;99.90
17766;DHT22;9007;53.550;9.928;2022-07-06T11:18:14;16.50;99.90
17766;DHT22;9007;53.550;9.928;2022-07-06T11:23:26;17.00;99.90
17766;DHT22;9007;53.550;9.928;2022-07-06T11:25:54;17.90;99.90
17766;DHT22;9007;53.550;9.928;2022-07-06T11:28:20;18.30;99.90
17766;DHT22;9007;53.550;9.928;2022-07-06T11:30:47;19.10;99.90
17766;DHT22;9007;53.550;9.928;2022-07-06T11:33:28;19.30;99.90
17766;DHT22;9007;53.550;9.928;2022-07-06T11:36:10;19.30;99.90
17766;DHT22;9007;53.550;9.928;2022-07-06T11:41:40;19.20;99.90
17766;DHT22;9007;53.550;9.928;2022-07-06T11:44:07;18.90;99.90
17766;DHT22;9007;53.550;9.928;2022-07-06T11:46:34;18.30;99.90
17766;DHT22;9007;53.550;9.928;2022-07-06T11:49:02;18.30;99.90
17766;DHT22;9007;53.550;9.928;2022-07-06T11:51:30;18.10;99.90
17766;DHT22;9007;53.550;9.928;2022-07-06T11:53:58;18.00;99.90
17766;DHT22;9007;53.550;9.928;2022-07-06T11:56:26;20.20;99.90
17766;DHT22;9007;53.550;9.928;2022-07-06T11:58:53;18.90;99.90
17766;DHT22;9007;53.550;9.928;2022-07-06T12:01:20;19.70;99.90
17766;DHT22;9007;53.550;9.928;2022-07-06T12:03:47;20.50;99.90
17766;DHT22;9007;53.550;9.928;2022-07-06T12:06:19;21.10;99.90
17766;DHT22;9007;53.550;9.928;2022-07-06T12:08:47;21.80;99.90
17766;DHT22;9007;53.550;9.928;2022-07-06T12:11:20;22.40;99.90
17766;DHT22;9007;53.550;9.928;2022-07-06T12:13:47;21.70;99.90
17766;DHT22;9007;53.550;9.928;2022-07-06T12:16:14;21.90;99.90
17766;DHT22;9007;53.550;9.928;2022-07-06T12:18:42;21.70;99.90
17766;DHT22;9007;53.550;9.928;2022-07-06T12:21:09;21.70;99.90
17766;DHT22;9007;53.550;9.928;2022-07-06T12:23:40;22.70;99.90
17766;DHT22;9007;53.550;9.928;2022-07-06T12:26:07;24.80;99.90
17766;DHT22;9007;53.550;9.928;2022-07-06T12:28:34;23.80;99.90
17766;DHT22;9007;53.550;9.928;2022-07-06T12:31:00;26.20;99.90
17766;DHT22;9007;53.550;9.928;2022-07-06T12:33:29;23.70;99.90
17766;DHT22;9007;53.550;9.928;2022-07-06T12:35:56;22.30;99.90
17766;DHT22;9007;53.550;9.928;2022-07-06T12:38:23;22.30;99.90
17766;DHT22;9007;53.550;9.928;2022-07-06T12:40:52;21.90;99.90
17766;DHT22;9007;53.550;9.928;2022-07-06T12:46:15;21.00;99.90
17766;DHT22;9007;53.550;9.928;2022-07-06T12:48:51;21.50;99.90
17766;DHT22;9007;53.550;9.928;2022-07-06T12:51:18;22.60;99.90
17766;DHT22;9007;53.550;9.928;2022-07-06T12:53:45;21.50;99.90
17766;DHT22;9007;53.550;9.928;2022-07-06T12:56:13;22.00;99.90
17766;DHT22;9007;53.550;9.928;2022-07-06T12:58:53;22.30;99.90
17766;DHT22;9007;53.550;9.928;2022-07-06T13:01:20;23.00;99.90
17766;DHT22;9007;53.550;9.928;2022-07-06T13:03:47;24.00;99.90
17766;DHT22;9007;53.550;9.928;2022-07-06T13:08:55;26.00;99.90
17766;DHT22;9007;53.550;9.928;2022-07-06T13:11:23;25.30;99.90
17766;DHT22;9007;53.550;9.928;2022-07-06T13:13:50;23.20;99.90
17766;DHT22;9007;53.550;9.928;2022-07-06T13:16:17;22.20;99.90
17766;DHT22;9007;53.550;9.928;2022-07-06T13:18:43;21.60;99.90
17766;DHT22;9007;53.550;9.928;2022-07-06T13:21:10;21.90;99.90
17766;DHT22;9007;53.550;9.928;2022-07-06T13:23:37;23.10;99.90
17766;DHT22;9007;53.550;9.928;2022-07-06T13:26:04;23.40;99.90
17766;DHT22;9007;53.550;9.928;2022-07-06T13:28:32;23.20;99.90
17766;DHT22;9007;53.550;9.928;2022-07-06T13:30:59;25.00;99.90
17766;DHT22;9007;53.550;9.928;2022-07-06T13:33:25;26.10;99.90
17766;DHT22;9007;53.550;9.928;2022-07-06T13:35:52;26.60;99.90
17766;DHT22;9007;53.550;9.928;2022-07-06T13:38:19;26.80;99.90
17766;DHT22;9007;53.550;9.928;2022-07-06T13:40:48;26.10;99.90
17766;DHT22;9007;53.550;9.928;2022-07-06T13:43:15;25.40;99.90
17766;DHT22;9007;53.550;9.928;2022-07-06T13:45:43;25.30;99.90
17766;DHT22;9007;53.550;9.928;2022-07-06T13:48:09;25.30;99.90
17766;DHT22;9007;53.550;9.928;2022-07-06T13:50:36;24.50;99.90
17766;DHT22;9007;53.550;9.928;2022-07-06T13:53:03;24.20;99.90
17766;DHT22;9007;53.550;9.928;2022-07-06T13:55:30;24.20;99.90
17766;DHT22;9007;53.550;9.928;2022-07-06T13:57:57;24.60;99.90
17766;DHT22;9007;53.550;9.928;2022-07-06T14:00:24;24.60;99.90
17766;DHT22;9007;53.550;9.928;2022-07-06T14:02:52;25.00;99.90
17766;DHT22;9007;53.550;9.928;2022-07-06T14:05:19;23.80;99.90
17766;DHT22;9007;53.550;9.928;2022-07-06T14:07:46;24.00;99.90
17766;DHT22;9007;53.550;9.928;2022-07-06T14:10:12;23.10;99.90
17766;DHT22;9007;53.550;9.928;2022-07-06T14:12:39;22.70;99.90
17766;DHT22;9007;53.550;9.928;2022-07-06T14:15:06;21.80;99.90
17766;DHT22;9007;53.550;9.928;2022-07-06T14:17:33;21.80;99.90
17766;DHT22;9007;53.550;9.928;2022-07-06T14:20:01;22.20;99.90
17766;DHT22;9007;53.550;9.928;2022-07-06T14:22:28;24.10;99.90
17766;DHT22;9007;53.550;9.928;2022-07-06T14:24:54;22.60;99.90
17766;DHT22;9007;53.550;9.928;2022-07-06T14:27:21;22.40;99.90
17766;DHT22;9007;53.550;9.928;2022-07-06T14:29:48;22.50;99.90
17766;DHT22;9007;53.550;9.928;2022-07-06T14:32:14;22.00;99.90
17766;DHT22;9007;53.550;9.928;2022-07-06T14:34:41;22.00;99.90
17766;DHT22;9007;53.550;9.928;2022-07-06T14:37:09;25.30;99.90
17766;DHT22;9007;53.550;9.928;2022-07-06T14:39:39;21.20;99.90
17766;DHT22;9007;53.550;9.928;2022-07-06T14:42:07;20.80;99.90
17766;DHT22;9007;53.550;9.928;2022-07-06T14:44:34;20.90;99.90
17766;DHT22;9007;53.550;9.928;2022-07-06T14:47:01;20.90;99.90
17766;DHT22;9007;53.550;9.928;2022-07-06T14:49:28;21.00;99.90
17766;DHT22;9007;53.550;9.928;2022-07-06T14:51:55;21.00;99.90
17766;DHT22;9007;53.550;9.928;2022-07-06T14:54:24;20.80;99.90
17766;DHT22;9007;53.550;9.928;2022-07-06T14:56:51;20.90;99.90
17766;DHT22;9007;53.550;9.928;2022-07-06T14:59:18;21.00;99.90
17766;DHT22;9007;53.550;9.928;2022-07-06T15:01:45;21.40;99.90
17766;DHT22;9007;53.550;9.928;2022-07-06T15:04:11;19.90;99.90
17766;DHT22;9007;53.550;9.928;2022-07-06T15:06:40;21.10;99.90
17766;DHT22;9007;53.550;9.928;2022-07-06T15:09:07;21.10;99.90
17766;DHT22;9007;53.550;9.928;2022-07-06T15:11:35;21.00;99.90
17766;DHT22;9007;53.550;9.928;2022-07-06T15:14:14;20.90;99.90
17766;DHT22;9007;53.550;9.928;2022-07-06T15:16:54;20.60;99.90
17766;DHT22;9007;53.550;9.928;2022-07-06T15:19:21;20.60;99.90
17766;DHT22;9007;53.550;9.928;2022-07-06T15:21:48;21.10;99.90
17766;DHT22;9007;53.550;9.928;2022-07-06T15:24:14;21.30;99.90
17766;DHT22;9007;53.550;9.928;2022-07-06T15:26:42;21.10;99.90
17766;DHT22;9007;53.550;9.928;2022-07-06T15:29:09;20.80;99.90
17766;DHT22;9007;53.550;9.928;2022-07-06T15:31:36;20.50;99.90
17766;DHT22;9007;53.550;9.928;2022-07-06T15:34:02;20.40;99.90
17766;DHT22;9007;53.550;9.928;2022-07-06T15:36:29;20.70;99.90
17766;DHT22;9007;53.550;9.928;2022-07-06T15:38:56;20.60;99.90
17766;DHT22;9007;53.550;9.928;2022-07-06T15:41:23;20.80;99.90
17766;DHT22;9007;53.550;9.928;2022-07-06T15:43:51;20.70;99.90
17766;DHT22;9007;53.550;9.928;2022-07-06T15:46:18;20.50;99.90
17766;DHT22;9007;53.550;9.928;2022-07-06T15:48:44;20.80;99.90
17766;DHT22;9007;53.550;9.928;2022-07-06T15:51:11;20.50;99.90
17766;DHT22;9007;53.550;9.928;2022-07-06T15:53:39;20.90;99.90
17766;DHT22;9007;53.550;9.928;2022-07-06T15:56:10;21.00;99.90
17766;DHT22;9007;53.550;9.928;2022-07-06T15:58:37;21.30;99.90
17766;DHT22;9007;53.550;9.928;2022-07-06T16:01:05;21.80;99.90
17766;DHT22;9007;53.550;9.928;2022-07-06T16:03:32;21.10;99.90
17766;DHT22;9007;53.550;9.928;2022-07-06T16:06:02;21.50;99.90
17766;DHT22;9007;53.550;9.928;2022-07-06T16:08:29;21.60;99.90
17766;DHT22;9007;53.550;9.928;2022-07-06T16:10:56;21.60;99.90